Terminal Aerodrome Forecast
Issued by NWS Jacksonville, FL

Home | Current Version | Previous Version | Text Only | Print | Product List | Glossary On
Versions: 1 2 3 4 5 6 7 8 9 10 11 12 13 14 15 16 17 18 19 20 21 22 23 24
556
FTUS42 KJAX 240538
TAFGNV
TAF
KGNV 240538Z 2406/2506 VRB05KT P6SM FEW030 SCT250
     FM242100 12007KT P6SM VCTS SCT050CB BKN250
     FM250200 VRB03KT P6SM FEW040=

USA.gov is the U.S. government's official web portal to all federal, state and local government web resources and services.